createdAt,value
2022-12-08T00:00:12.721Z,24.10
2022-12-08T00:03:01.979Z,26.90
2022-12-08T00:05:50.419Z,19.10
2022-12-08T00:08:37.644Z,20.80
2022-12-08T00:11:12.488Z,21.20
2022-12-08T00:13:43.273Z,24.60
2022-12-08T00:16:12.676Z,23.50
2022-12-08T00:18:43.041Z,23.10
2022-12-08T00:23:41.756Z,28.60
2022-12-08T00:26:11.360Z,33.80
2022-12-08T00:28:40.442Z,26.10
2022-12-08T00:31:11.866Z,22.60
2022-12-08T00:33:41.186Z,22.90
2022-12-08T00:36:13.360Z,30.00
2022-12-08T00:38:45.050Z,29.20
2022-12-08T00:41:17.144Z,24.90
2022-12-08T00:43:46.498Z,19.80
2022-12-08T00:46:15.973Z,24.10
2022-12-08T00:48:45.918Z,22.70
2022-12-08T00:51:16.561Z,21.30
2022-12-08T00:53:46.531Z,23.20
2022-12-08T00:56:16.912Z,25.50
2022-12-08T00:58:46.969Z,25.20
2022-12-08T01:01:17.849Z,25.00
2022-12-08T01:03:48.818Z,24.00
2022-12-08T01:06:18.639Z,22.80
2022-12-08T01:08:50.008Z,23.30
2022-12-08T01:11:20.850Z,22.40
2022-12-08T01:13:51.135Z,20.00
2022-12-08T01:16:30.741Z,20.90
2022-12-08T01:19:01.937Z,21.30
2022-12-08T01:21:32.228Z,20.90
2022-12-08T01:24:03.654Z,20.90
2022-12-08T01:26:34.030Z,22.60
2022-12-08T01:29:05.992Z,18.20
2022-12-08T01:31:36.269Z,18.00
2022-12-08T01:39:17.341Z,16.90
2022-12-08T01:41:50.096Z,18.40
2022-12-08T01:44:20.067Z,17.30
2022-12-08T01:46:51.162Z,22.90
2022-12-08T01:49:29.786Z,22.70
2022-12-08T01:52:06.088Z,19.00
2022-12-08T01:54:42.096Z,25.20
2022-12-08T01:57:19.126Z,17.10
2022-12-08T01:59:59.203Z,23.20
2022-12-08T02:02:35.550Z,22.50
2022-12-08T02:05:08.865Z,21.90
2022-12-08T02:07:40.332Z,25.40
2022-12-08T02:10:15.239Z,25.90
2022-12-08T02:12:47.902Z,24.20
2022-12-08T02:15:20.169Z,19.20
2022-12-08T02:18:25.680Z,21.90
2022-12-08T02:21:13.075Z,20.10
2022-12-08T02:24:10.376Z,19.40
2022-12-08T02:27:12.466Z,18.70
2022-12-08T02:30:11.137Z,23.20
2022-12-08T02:32:57.448Z,24.40
2022-12-08T02:35:54.754Z,26.70
2022-12-08T02:38:46.380Z,30.00
2022-12-08T02:41:26.072Z,24.30
2022-12-08T02:44:06.484Z,24.60
2022-12-08T02:46:55.098Z,26.60
2022-12-08T02:49:38.106Z,27.00
2022-12-08T02:52:16.366Z,24.60
2022-12-08T02:54:53.030Z,25.20
2022-12-08T02:57:59.172Z,21.50
2022-12-08T03:00:37.235Z,25.30
2022-12-08T03:03:16.195Z,28.10
2022-12-08T03:05:57.336Z,29.60
2022-12-08T03:08:37.835Z,27.10
2022-12-08T03:14:02.103Z,21.40
2022-12-08T03:16:36.363Z,27.20
2022-12-08T03:19:20.833Z,27.40
2022-12-08T03:21:55.523Z,26.40
2022-12-08T03:24:25.127Z,27.30
2022-12-08T03:27:00.988Z,27.70
2022-12-08T03:29:32.704Z,27.00
2022-12-08T03:32:13.299Z,20.50
2022-12-08T03:34:47.616Z,21.30
2022-12-08T03:37:17.732Z,24.20
2022-12-08T03:39:47.926Z,26.00
2022-12-08T03:42:17.961Z,25.80
2022-12-08T03:44:47.587Z,24.90
2022-12-08T03:47:16.861Z,24.80
2022-12-08T03:49:47.405Z,19.90
2022-12-08T03:52:18.341Z,20.10
2022-12-08T03:54:47.914Z,15.90
2022-12-08T03:57:18.179Z,20.60
2022-12-08T03:59:47.546Z,15.90
2022-12-08T04:02:17.253Z,22.30
2022-12-08T04:04:46.589Z,17.90
2022-12-08T04:07:16.505Z,17.50
2022-12-08T04:09:46.557Z,20.10
2022-12-08T04:12:17.063Z,18.50
2022-12-08T04:14:45.947Z,19.30
2022-12-08T04:17:14.955Z,16.10
2022-12-08T04:19:45.153Z,16.00
2022-12-08T04:22:15.066Z,14.70
2022-12-08T04:24:44.563Z,16.30
2022-12-08T04:29:44.253Z,19.60
2022-12-08T04:32:14.598Z,21.30
2022-12-08T04:34:44.855Z,21.80
2022-12-08T04:37:14.786Z,20.70
2022-12-08T04:39:44.389Z,22.30
2022-12-08T04:42:13.761Z,22.80
2022-12-08T04:44:43.904Z,21.40
2022-12-08T04:47:13.766Z,23.90
2022-12-08T04:49:43.112Z,20.10
2022-12-08T04:52:12.637Z,19.50
2022-12-08T04:54:41.493Z,25.70
2022-12-08T04:57:11.686Z,30.20
2022-12-08T04:59:41.014Z,32.20
2022-12-08T05:02:10.582Z,29.60
2022-12-08T05:04:41.052Z,27.80
2022-12-08T05:07:10.147Z,25.50
2022-12-08T05:09:39.049Z,25.40
2022-12-08T05:12:09.387Z,25.20
2022-12-08T05:17:09.886Z,18.70
2022-12-08T05:19:39.747Z,18.00
2022-12-08T05:22:09.182Z,25.10
2022-12-08T05:24:45.671Z,25.10
2022-12-08T05:27:18.006Z,27.40
2022-12-08T05:29:48.666Z,24.50
2022-12-08T05:32:18.204Z,25.90
2022-12-08T05:34:47.497Z,25.80
2022-12-08T05:37:17.264Z,26.10
2022-12-08T05:39:47.205Z,24.50
2022-12-08T05:42:20.511Z,23.30
2022-12-08T05:44:53.408Z,21.90
2022-12-08T05:47:22.306Z,22.80
2022-12-08T05:49:51.782Z,22.20
2022-12-08T05:52:20.784Z,22.80
2022-12-08T05:54:49.689Z,21.40
2022-12-08T05:57:18.353Z,22.70
2022-12-08T05:59:47.845Z,23.80
2022-12-08T06:02:17.148Z,23.60
2022-12-08T06:04:46.779Z,25.50
2022-12-08T06:07:16.526Z,24.30
2022-12-08T06:09:46.298Z,23.80
2022-12-08T06:12:16.559Z,23.90
2022-12-08T06:14:45.401Z,22.00
2022-12-08T06:17:14.503Z,19.50
2022-12-08T06:19:43.761Z,27.20
2022-12-08T06:22:12.797Z,27.80
2022-12-08T06:24:41.886Z,29.40
2022-12-08T06:27:10.780Z,24.50
2022-12-08T06:29:39.668Z,31.90
2022-12-08T06:32:08.615Z,26.60
2022-12-08T06:34:38.260Z,27.00
2022-12-08T06:37:07.477Z,28.10
2022-12-08T06:39:36.458Z,27.30
2022-12-08T06:42:23.881Z,24.70
2022-12-08T06:44:52.868Z,25.00
2022-12-08T06:47:26.168Z,25.60
2022-12-08T06:49:56.078Z,28.40
2022-12-08T06:52:25.177Z,36.90
2022-12-08T06:54:54.280Z,45.50
2022-12-08T06:57:24.599Z,33.40
2022-12-08T06:59:54.007Z,33.90
2022-12-08T07:02:22.741Z,46.20
2022-12-08T07:04:52.182Z,39.40
2022-12-08T07:07:20.665Z,42.70
2022-12-08T07:09:49.562Z,47.90
2022-12-08T07:12:18.751Z,41.10
2022-12-08T07:14:47.845Z,35.10
2022-12-08T07:17:16.872Z,37.20
2022-12-08T07:19:45.832Z,40.10
2022-12-08T07:22:14.622Z,51.60
2022-12-08T07:24:43.308Z,47.80
2022-12-08T07:27:11.992Z,43.30
2022-12-08T07:29:41.192Z,44.00
2022-12-08T07:32:10.283Z,40.10
2022-12-08T07:34:38.867Z,38.50
2022-12-08T07:37:08.274Z,34.40
2022-12-08T07:39:37.363Z,37.20
2022-12-08T07:42:06.354Z,32.70
2022-12-08T07:44:35.560Z,37.50
2022-12-08T07:47:05.574Z,31.60
2022-12-08T07:49:34.430Z,30.10
2022-12-08T07:52:04.073Z,29.10
2022-12-08T07:54:32.857Z,31.80
2022-12-08T07:57:03.901Z,39.40
2022-12-08T07:59:33.329Z,34.60
2022-12-08T08:02:23.026Z,29.70
2022-12-08T08:04:52.357Z,26.30
2022-12-08T08:07:21.574Z,30.30
2022-12-08T08:09:52.573Z,28.00
2022-12-08T08:12:36.475Z,29.90
2022-12-08T08:15:08.292Z,35.80
2022-12-08T08:17:38.490Z,37.80
2022-12-08T08:20:08.756Z,36.00
2022-12-08T08:22:37.558Z,36.60
2022-12-08T08:25:06.743Z,35.40
2022-12-08T08:27:36.655Z,34.30
2022-12-08T08:30:08.158Z,29.30
2022-12-08T08:32:38.302Z,32.60
2022-12-08T08:35:07.690Z,30.10
2022-12-08T08:37:36.637Z,43.80
2022-12-08T08:40:06.416Z,43.80
2022-12-08T08:42:35.325Z,40.70
2022-12-08T08:45:04.936Z,41.20
2022-12-08T08:47:33.513Z,41.70
2022-12-08T08:50:02.673Z,40.70
2022-12-08T08:52:31.921Z,42.90
2022-12-08T08:55:00.800Z,40.70
2022-12-08T08:57:29.691Z,38.20
2022-12-08T08:59:58.783Z,36.40
2022-12-08T09:02:28.130Z,33.50
2022-12-08T09:04:57.031Z,38.50
2022-12-08T09:07:26.586Z,42.60
2022-12-08T09:10:00.034Z,39.50
2022-12-08T09:12:30.610Z,32.90
2022-12-08T09:14:59.402Z,28.90
2022-12-08T09:17:27.982Z,21.60
2022-12-08T09:19:57.086Z,38.90
2022-12-08T09:22:25.762Z,41.80
2022-12-08T09:24:54.554Z,35.50
2022-12-08T09:27:23.242Z,32.70
2022-12-08T09:29:52.034Z,27.90
2022-12-08T09:32:20.810Z,17.40
2022-12-08T09:34:52.239Z,15.80
2022-12-08T09:37:21.286Z,14.90
2022-12-08T09:39:50.050Z,14.90
2022-12-08T09:42:55.289Z,15.20
2022-12-08T09:45:27.143Z,16.20
2022-12-08T09:48:13.345Z,15.80
2022-12-08T09:50:48.786Z,13.70
2022-12-08T09:53:35.345Z,12.20
2022-12-08T09:56:13.612Z,16.70
2022-12-08T09:58:57.038Z,21.20
2022-12-08T10:01:34.830Z,16.80
2022-12-08T10:04:04.537Z,19.30
2022-12-08T10:07:19.508Z,19.80
2022-12-08T10:09:57.308Z,16.90
2022-12-08T10:12:28.860Z,18.10
2022-12-08T10:15:14.234Z,15.50
2022-12-08T10:17:49.787Z,14.70
2022-12-08T10:20:26.461Z,16.00
2022-12-08T10:23:30.167Z,16.10
2022-12-08T10:26:02.440Z,15.70
2022-12-08T10:28:34.005Z,16.40
2022-12-08T10:31:02.597Z,13.30
2022-12-08T10:33:33.100Z,11.60
2022-12-08T10:36:05.267Z,11.20
2022-12-08T10:38:39.009Z,12.10
2022-12-08T10:41:10.421Z,14.30
2022-12-08T10:43:48.386Z,13.40
2022-12-08T10:46:22.981Z,9.90
2022-12-08T10:49:10.471Z,8.60
2022-12-08T10:51:42.457Z,10.90
2022-12-08T10:54:29.255Z,10.70
2022-12-08T10:56:58.548Z,8.80
2022-12-08T10:59:27.948Z,9.80
2022-12-08T11:01:57.569Z,9.50
2022-12-08T11:04:36.183Z,7.90
2022-12-08T11:07:06.618Z,7.40
2022-12-08T11:09:53.112Z,7.60
2022-12-08T11:12:23.111Z,8.90
2022-12-08T11:14:59.392Z,7.90
2022-12-08T11:17:35.956Z,9.60
2022-12-08T11:20:25.018Z,8.40
2022-12-08T11:22:56.724Z,7.00
2022-12-08T11:25:27.397Z,10.00
2022-12-08T11:28:02.102Z,9.20
2022-12-08T11:30:41.460Z,8.60
2022-12-08T11:33:30.735Z,6.30
2022-12-08T11:36:09.783Z,5.50
2022-12-08T11:38:44.481Z,5.80
2022-12-08T11:41:22.917Z,5.40
2022-12-08T11:44:28.496Z,5.60
2022-12-08T11:47:07.183Z,4.70
2022-12-08T11:49:42.174Z,6.70
2022-12-08T11:52:19.844Z,4.80
2022-12-08T11:54:52.168Z,5.50
2022-12-08T11:57:23.524Z,5.20
2022-12-08T11:59:55.281Z,4.20
2022-12-08T12:02:27.572Z,4.90
2022-12-08T12:05:08.211Z,4.20
2022-12-08T12:08:11.867Z,4.60
2022-12-08T12:11:12.960Z,4.60
2022-12-08T12:14:10.018Z,5.00
2022-12-08T12:16:47.771Z,4.10
2022-12-08T12:19:19.576Z,4.20
2022-12-08T12:21:55.729Z,4.90
2022-12-08T12:24:36.027Z,4.70
2022-12-08T12:27:25.573Z,4.60
2022-12-08T12:29:59.370Z,4.30
2022-12-08T12:32:49.249Z,4.90
2022-12-08T12:35:32.372Z,4.90
2022-12-08T12:38:31.082Z,4.70
2022-12-08T12:41:05.115Z,6.00
2022-12-08T12:43:36.210Z,7.00
2022-12-08T12:46:23.079Z,6.20
2022-12-08T12:48:52.946Z,5.00
2022-12-08T12:51:45.996Z,4.70
2022-12-08T12:54:26.562Z,4.90
2022-12-08T12:56:56.344Z,4.60
2022-12-08T12:59:32.747Z,4.30
2022-12-08T13:02:03.083Z,5.30
2022-12-08T13:04:36.253Z,4.70
2022-12-08T13:07:05.756Z,5.20
2022-12-08T13:09:39.511Z,14.60
2022-12-08T13:12:12.041Z,11.70
2022-12-08T13:14:51.846Z,11.10
2022-12-08T13:17:35.244Z,11.70
2022-12-08T13:20:07.457Z,6.10
2022-12-08T13:22:54.709Z,6.20
2022-12-08T13:25:45.507Z,6.30
2022-12-08T13:28:30.487Z,12.20
2022-12-08T13:30:59.332Z,10.10
2022-12-08T13:33:42.385Z,10.50
2022-12-08T13:36:26.428Z,13.20
2022-12-08T13:38:58.269Z,13.30
2022-12-08T13:41:43.564Z,12.40
2022-12-08T13:47:59.642Z,13.20
2022-12-08T13:59:24.642Z,16.10
2022-12-08T14:01:53.377Z,18.20
2022-12-08T14:07:14.043Z,15.10
2022-12-08T14:09:43.549Z,16.50
2022-12-08T14:12:28.010Z,13.60
2022-12-08T14:15:07.816Z,14.20
2022-12-08T14:17:39.933Z,21.00
2022-12-08T14:20:57.968Z,16.40
2022-12-08T14:23:24.504Z,17.10
2022-12-08T14:25:53.997Z,17.30
2022-12-08T14:28:23.510Z,18.30
2022-12-08T14:30:52.649Z,17.40
2022-12-08T14:33:21.504Z,16.40
2022-12-08T14:35:56.769Z,18.40
2022-12-08T14:38:26.427Z,18.10
2022-12-08T14:41:05.262Z,17.40
2022-12-08T14:43:34.535Z,20.40
2022-12-08T14:46:19.654Z,21.90
2022-12-08T14:48:49.847Z,25.40
2022-12-08T14:51:24.172Z,22.20
2022-12-08T14:54:00.688Z,20.80
2022-12-08T14:56:40.482Z,21.70
2022-12-08T14:59:25.783Z,18.40
2022-12-08T15:02:09.430Z,22.20
2022-12-08T15:04:40.558Z,19.80
2022-12-08T15:07:22.020Z,17.10
2022-12-08T15:10:11.424Z,25.60
2022-12-08T15:12:40.486Z,20.90
2022-12-08T15:15:09.074Z,21.10
2022-12-08T15:17:42.672Z,22.20
2022-12-08T15:20:35.340Z,20.50
2022-12-08T15:23:04.618Z,18.80
2022-12-08T15:25:33.818Z,18.30
2022-12-08T15:28:03.439Z,29.90
2022-12-08T15:30:32.013Z,24.40
2022-12-08T15:33:00.589Z,23.70
2022-12-08T15:35:29.377Z,23.30
2022-12-08T15:37:57.961Z,24.20
2022-12-08T15:40:27.569Z,24.50
2022-12-08T15:42:56.255Z,25.00
2022-12-08T15:45:32.732Z,23.70
2022-12-08T15:48:01.205Z,23.70
2022-12-08T15:50:29.890Z,21.10
2022-12-08T15:52:58.473Z,22.20
2022-12-08T15:55:27.463Z,24.70
2022-12-08T16:00:53.845Z,33.50
2022-12-08T16:09:38.837Z,46.80
2022-12-08T16:13:19.931Z,41.90
2022-12-08T16:18:17.634Z,32.50
2022-12-08T16:23:42.863Z,40.00
2022-12-08T16:29:08.902Z,50.20
2022-12-08T16:31:37.501Z,53.50
2022-12-08T16:34:06.324Z,58.90
2022-12-08T16:36:34.904Z,51.90
2022-12-08T16:39:03.956Z,54.80
2022-12-08T16:41:51.219Z,51.50
2022-12-08T16:44:19.806Z,54.40
2022-12-08T16:46:48.490Z,55.20
2022-12-08T16:49:17.889Z,50.30
2022-12-08T16:51:46.881Z,47.60
2022-12-08T16:54:15.466Z,49.60
2022-12-08T16:56:44.153Z,52.10
2022-12-08T16:59:13.147Z,50.90
2022-12-08T17:01:42.122Z,43.80
2022-12-08T17:07:00.104Z,38.90
2022-12-08T17:09:33.075Z,37.40
2022-12-08T17:12:04.400Z,35.00
2022-12-08T17:14:36.184Z,29.70
2022-12-08T17:17:05.128Z,25.80
2022-12-08T17:19:34.371Z,24.00
2022-12-08T17:22:02.957Z,24.70
2022-12-08T17:24:32.154Z,33.30
2022-12-08T17:27:04.638Z,36.50
2022-12-08T17:29:34.969Z,35.80
2022-12-08T17:32:03.851Z,31.20
2022-12-08T17:34:32.642Z,26.50
2022-12-08T17:37:01.427Z,26.90
2022-12-08T17:39:30.104Z,26.30
2022-12-08T17:41:58.736Z,35.20
2022-12-08T17:44:28.497Z,29.80
2022-12-08T17:46:58.205Z,37.40
2022-12-08T17:49:29.983Z,42.00
2022-12-08T17:52:01.270Z,45.30
2022-12-08T17:54:30.406Z,43.30
2022-12-08T17:56:59.299Z,40.10
2022-12-08T17:59:29.007Z,40.10
2022-12-08T18:01:58.855Z,37.10
2022-12-08T18:04:28.218Z,34.20
2022-12-08T18:06:59.668Z,32.50
2022-12-08T18:09:30.826Z,36.20
2022-12-08T18:11:59.497Z,36.50
2022-12-08T18:14:28.084Z,34.50
2022-12-08T18:16:56.619Z,37.20
2022-12-08T18:19:26.578Z,35.80
2022-12-08T18:21:55.062Z,32.00
2022-12-08T18:24:24.360Z,31.00
2022-12-08T18:26:52.946Z,29.10
2022-12-08T18:29:22.936Z,29.40
2022-12-08T18:31:52.567Z,27.10
2022-12-08T18:34:21.353Z,27.70
2022-12-08T18:36:50.039Z,30.70
2022-12-08T18:39:24.358Z,29.10
2022-12-08T18:41:54.373Z,29.30
2022-12-08T18:44:23.161Z,30.60
2022-12-08T18:46:51.643Z,28.30
2022-12-08T18:49:20.944Z,29.10
2022-12-08T18:51:49.423Z,28.60
2022-12-08T18:54:18.114Z,25.20
2022-12-08T18:56:46.800Z,47.80
2022-12-08T18:59:16.301Z,67.50
2022-12-08T19:01:44.953Z,78.30
2022-12-08T19:04:28.379Z,74.10
2022-12-08T19:06:58.226Z,73.60
2022-12-08T19:09:27.112Z,84.40
2022-12-08T19:11:56.729Z,86.50
2022-12-08T19:14:28.583Z,82.50
2022-12-08T19:16:58.096Z,78.00
2022-12-08T19:19:28.416Z,80.20
2022-12-08T19:24:26.364Z,55.30
2022-12-08T19:26:54.990Z,66.40
2022-12-08T19:29:23.667Z,55.30
2022-12-08T19:31:52.870Z,59.30
2022-12-08T19:34:21.756Z,54.90
2022-12-08T19:36:50.353Z,52.30
2022-12-08T19:39:40.337Z,58.80
2022-12-08T19:42:38.908Z,58.10
2022-12-08T19:45:20.340Z,57.40
2022-12-08T19:47:49.082Z,54.20
2022-12-08T19:50:36.594Z,59.60
2022-12-08T19:53:13.601Z,58.10
2022-12-08T19:55:43.613Z,51.50
2022-12-08T19:58:12.194Z,49.90
2022-12-08T20:00:41.704Z,51.60
2022-12-08T20:03:14.408Z,51.20
2022-12-08T20:05:44.202Z,52.70
2022-12-08T20:08:13.132Z,51.90
2022-12-08T20:10:43.708Z,45.00
2022-12-08T20:13:33.177Z,46.30
2022-12-08T20:16:01.688Z,43.10
2022-12-08T20:18:30.548Z,37.70
2022-12-08T20:20:59.645Z,34.50
2022-12-08T20:23:28.121Z,37.70
2022-12-08T20:25:57.221Z,41.60
2022-12-08T20:28:25.916Z,38.00
2022-12-08T20:30:54.439Z,41.20
2022-12-08T20:33:22.988Z,49.70
2022-12-08T20:36:03.159Z,41.20
2022-12-08T20:38:32.227Z,50.40
2022-12-08T20:41:01.002Z,50.80
2022-12-08T20:43:29.587Z,50.70
2022-12-08T20:45:58.281Z,42.60
2022-12-08T20:48:27.236Z,42.20
2022-12-08T20:50:56.166Z,44.00
2022-12-08T20:53:25.089Z,38.90
2022-12-08T20:55:53.732Z,33.10
2022-12-08T20:58:22.649Z,33.30
2022-12-08T21:00:51.272Z,31.20
2022-12-08T21:03:20.366Z,31.20
2022-12-08T21:05:51.188Z,31.80
2022-12-08T21:08:20.422Z,26.90
2022-12-08T21:10:58.477Z,28.50
2022-12-08T21:13:27.622Z,29.30
2022-12-08T21:15:56.772Z,30.40
2022-12-08T21:18:26.048Z,39.30
2022-12-08T21:21:02.934Z,33.10
2022-12-08T21:23:31.937Z,37.20
2022-12-08T21:26:00.639Z,35.00
2022-12-08T21:28:29.527Z,37.50
2022-12-08T21:30:58.472Z,36.80
2022-12-08T21:33:27.795Z,39.40
2022-12-08T21:36:11.788Z,43.20
2022-12-08T21:38:41.192Z,39.10
2022-12-08T21:41:13.902Z,42.00
2022-12-08T21:43:43.507Z,38.40
2022-12-08T21:46:21.229Z,50.30
2022-12-08T21:48:50.642Z,47.60
2022-12-08T21:51:19.407Z,44.00
2022-12-08T21:53:48.754Z,42.30
2022-12-08T21:56:18.125Z,46.70
2022-12-08T21:58:47.427Z,45.30
2022-12-08T22:01:16.161Z,41.50
2022-12-08T22:03:45.572Z,37.30
2022-12-08T22:06:14.914Z,30.40
2022-12-08T22:08:43.848Z,35.90
2022-12-08T22:11:13.564Z,36.10
2022-12-08T22:13:43.467Z,37.70
2022-12-08T22:16:14.968Z,33.30
2022-12-08T22:18:44.215Z,28.80
2022-12-08T22:21:17.994Z,34.60
2022-12-08T22:23:47.120Z,30.50
2022-12-08T22:26:15.888Z,29.90
2022-12-08T22:28:45.449Z,25.40
2022-12-08T22:31:17.388Z,30.90
2022-12-08T22:33:46.503Z,28.20
2022-12-08T22:36:18.469Z,28.00
2022-12-08T22:38:47.876Z,28.40
2022-12-08T22:41:18.180Z,27.40
2022-12-08T22:43:48.209Z,25.00
2022-12-08T22:46:20.185Z,25.00
2022-12-08T22:48:50.089Z,24.20
2022-12-08T22:51:19.768Z,23.80
2022-12-08T22:53:49.100Z,22.40
2022-12-08T22:56:18.691Z,23.00
2022-12-08T22:58:47.925Z,24.40
2022-12-08T23:01:31.345Z,27.70
2022-12-08T23:04:01.548Z,31.00
2022-12-08T23:06:31.645Z,29.50
2022-12-08T23:11:31.987Z,24.10
2022-12-08T23:14:01.578Z,29.60
2022-12-08T23:16:30.452Z,32.60
2022-12-08T23:18:59.676Z,30.90
2022-12-08T23:21:30.186Z,26.70
2022-12-08T23:24:01.521Z,31.30
2022-12-08T23:26:33.071Z,36.90
2022-12-08T23:29:02.264Z,34.50
2022-12-08T23:31:31.903Z,33.90
2022-12-08T23:34:02.617Z,35.30
2022-12-08T23:36:32.058Z,29.70
2022-12-08T23:39:01.504Z,33.90
2022-12-08T23:41:30.702Z,33.00
2022-12-08T23:43:59.982Z,32.90
2022-12-08T23:46:28.784Z,34.00
2022-12-08T23:48:58.843Z,31.60
2022-12-08T23:51:28.825Z,36.10
2022-12-08T23:53:58.031Z,29.20
2022-12-08T23:56:30.501Z,28.30
2022-12-08T23:59:01.303Z,27.20
